Time;durP1;ratioP1;P1;durP2;ratioP2;P2;SDS_P1;SDS_P2;PMS_P1;PMS_P2;Temp;Humidity;BMP_temperature;BMP_pressure;BME280_temperature;BME280_humidity;BME280_pressure;Samples;Min_cycle;Max_cycle;Signal;HPM_P1;HPM_P2
2022/12/24 00:02:03;;;;;;;8.38;1.65;;;;;;;;;;12912300;22;20023;-88
2022/12/24 00:07:07;;;;;;;8.02;2.10;;;;;;;;;;12888640;22;20028;-87
2022/12/24 00:12:11;;;;;;;6.32;2.00;;;;;;;;;;12911408;22;20012;-89
2022/12/24 00:17:16;;;;;;;7.55;1.85;;;;;;;;;;12885442;22;20046;-89
2022/12/24 00:22:19;;;;;;;7.93;1.73;;;;;;;;;;12881897;22;20016;-88
2022/12/24 00:27:23;;;;;;;6.85;1.90;;;;;;;;;;12913137;22;20031;-88
2022/12/24 00:32:28;;;;;;;8.85;1.88;;;;;;;;;;12907069;22;20660;-85
2022/12/24 00:37:31;;;;;;;8.75;2.17;;;;;;;;;;12878208;22;20044;-86
2022/12/24 00:42:35;;;;;;;8.05;2.40;;;;;;;;;;12906373;22;20017;-89
2022/12/24 00:47:41;;;;;;;7.53;2.28;;;;;;;;;;12885711;22;20457;-87
2022/12/24 00:52:45;;;;;;;10.07;2.40;;;;;;;;;;12887271;22;20046;-87
2022/12/24 00:57:48;;;;;;;8.77;2.22;;;;;;;;;;12884423;23;20047;-87
2022/12/24 01:02:53;;;;;;;10.25;2.60;;;;;;;;;;12907252;22;20099;-84
2022/12/24 01:07:57;;;;;;;12.25;2.22;;;;;;;;;;12879749;23;20082;-85
2022/12/24 01:13:02;;;;;;;7.85;1.83;;;;;;;;;;12907781;22;20047;-85
2022/12/24 01:18:07;;;;;;;12.90;2.37;;;;;;;;;;12880222;23;20062;-84
2022/12/24 01:23:15;;;;;;;7.88;2.42;;;;;;;;;;12914812;22;20133;-86
2022/12/24 01:28:18;;;;;;;14.68;2.63;;;;;;;;;;12879713;23;20614;-85
2022/12/24 01:33:23;;;;;;;9.65;2.60;;;;;;;;;;12889406;22;20024;-85
2022/12/24 01:38:27;;;;;;;6.60;2.13;;;;;;;;;;12889639;23;20028;-90
2022/12/24 01:43:32;;;;;;;7.63;2.58;;;;;;;;;;12885706;23;20048;-86
2022/12/24 01:48:41;;;;;;;8.73;2.30;;;;;;;;;;12880547;23;20099;-85
2022/12/24 01:53:51;;;;;;;9.73;2.50;;;;;;;;;;12893127;22;20020;-91
2022/12/24 01:59:01;;;;;;;8.90;2.20;;;;;;;;;;12914218;22;20730;-90
2022/12/24 02:04:13;;;;;;;9.60;3.20;;;;;;;;;;12883615;23;20070;-85
2022/12/24 02:09:17;;;;;;;15.43;3.30;;;;;;;;;;12881543;23;20076;-86
2022/12/24 02:14:20;;;;;;;11.80;2.60;;;;;;;;;;12909225;22;20031;-85
2022/12/24 02:20:14;;;;;;;15.25;2.90;;;;;;;;;;12882670;23;20052;-85
2022/12/24 02:25:41;;;;;;;7.90;2.50;;;;;;;;;;12618634;23;20034;-90
2022/12/24 02:30:52;;;;;;;11.88;2.83;;;;;;;;;;12840302;22;20016;-89
2022/12/24 02:36:02;;;;;;;13.75;2.70;;;;;;;;;;12895693;22;20050;-88
2022/12/24 02:41:10;;;;;;;12.00;2.58;;;;;;;;;;12881968;23;20031;-87
2022/12/24 02:46:18;;;;;;;10.75;2.97;;;;;;;;;;12915728;22;20028;-87
2022/12/24 02:51:23;;;;;;;10.68;2.50;;;;;;;;;;12887833;22;20545;-87
2022/12/24 02:56:45;;;;;;;15.50;2.45;;;;;;;;;;12884900;22;20024;-87
2022/12/24 03:01:57;;;;;;;10.23;2.97;;;;;;;;;;12897106;22;20413;-90
2022/12/24 03:07:08;;;;;;;10.48;2.22;;;;;;;;;;12880774;22;20039;-85
2022/12/24 03:12:15;;;;;;;13.80;2.58;;;;;;;;;;12891105;22;20037;-85
2022/12/24 03:17:20;;;;;;;15.63;3.08;;;;;;;;;;12882228;22;20027;-88
2022/12/24 03:22:26;;;;;;;14.68;2.90;;;;;;;;;;12882242;22;20035;-87
2022/12/24 03:27:31;;;;;;;10.73;3.25;;;;;;;;;;12911516;22;20099;-87
2022/12/24 03:32:36;;;;;;;7.25;2.22;;;;;;;;;;12888306;22;20027;-87
2022/12/24 03:37:41;;;;;;;9.65;2.38;;;;;;;;;;12882197;22;20826;-84
2022/12/24 03:42:45;;;;;;;10.13;2.40;;;;;;;;;;12877653;22;20095;-85
2022/12/24 03:47:50;;;;;;;11.98;2.75;;;;;;;;;;12878552;23;20047;-87
2022/12/24 03:52:54;;;;;;;13.45;2.83;;;;;;;;;;12892830;22;20036;-87
2022/12/24 03:57:58;;;;;;;11.45;2.83;;;;;;;;;;12892497;22;20028;-89
2022/12/24 04:03:02;;;;;;;11.43;2.53;;;;;;;;;;12884593;23;20028;-87
2022/12/24 04:08:06;;;;;;;10.45;2.42;;;;;;;;;;12884064;23;20307;-85
2022/12/24 04:13:09;;;;;;;9.07;2.17;;;;;;;;;;12880086;23;20024;-86
2022/12/24 04:18:14;;;;;;;12.20;2.55;;;;;;;;;;12884242;23;20407;-89
2022/12/24 04:23:18;;;;;;;10.07;1.92;;;;;;;;;;12878983;23;20443;-85
2022/12/24 04:28:22;;;;;;;10.48;2.33;;;;;;;;;;12881449;22;20028;-85
2022/12/24 04:33:27;;;;;;;12.93;2.75;;;;;;;;;;12849793;23;20020;-85
2022/12/24 04:38:32;;;;;;;11.25;2.90;;;;;;;;;;12864656;23;20024;-85
2022/12/24 04:43:35;;;;;;;13.40;3.35;;;;;;;;;;12853160;23;20044;-84
2022/12/24 04:48:41;;;;;;;13.00;3.05;;;;;;;;;;12853959;23;20027;-85
2022/12/24 04:53:44;;;;;;;8.37;2.37;;;;;;;;;;12855025;23;20436;-84
2022/12/24 04:58:48;;;;;;;8.40;2.00;;;;;;;;;;12888835;23;20693;-85
2022/12/24 05:03:54;;;;;;;12.52;3.03;;;;;;;;;;12853349;23;20104;-87
2022/12/24 05:08:58;;;;;;;15.23;3.30;;;;;;;;;;12853519;23;20418;-84
2022/12/24 05:14:01;;;;;;;13.88;2.92;;;;;;;;;;12853279;23;20024;-85
2022/12/24 05:19:07;;;;;;;11.52;2.72;;;;;;;;;;12852934;23;20024;-86
2022/12/24 05:29:32;;;;;;;12.57;2.88;;;;;;;;;;12859872;23;20134;-87
2022/12/24 05:34:37;;;;;;;13.18;2.97;;;;;;;;;;12888457;23;20240;-86
2022/12/24 05:39:41;;;;;;;13.55;3.20;;;;;;;;;;12887720;23;20457;-87
2022/12/24 05:44:45;;;;;;;8.73;2.85;;;;;;;;;;12864131;23;20024;-87
2022/12/24 05:49:50;;;;;;;9.10;2.88;;;;;;;;;;12859223;23;20343;-87
2022/12/24 05:54:54;;;;;;;7.25;2.08;;;;;;;;;;12860691;23;20027;-87
2022/12/24 05:59:57;;;;;;;8.40;2.80;;;;;;;;;;12907983;23;20020;-87
2022/12/24 06:05:02;;;;;;;16.25;3.15;;;;;;;;;;12863408;23;20020;-90
2022/12/24 06:10:08;;;;;;;11.45;3.40;;;;;;;;;;12857233;23;20070;-84
2022/12/24 06:15:12;;;;;;;14.05;2.35;;;;;;;;;;12859532;23;20036;-86
2022/12/24 06:20:19;;;;;;;17.10;3.15;;;;;;;;;;12860280;23;20094;-86
2022/12/24 06:25:23;;;;;;;15.63;3.38;;;;;;;;;;12860669;23;20031;-88
2022/12/24 06:30:29;;;;;;;11.90;3.00;;;;;;;;;;12859775;23;20023;-89
2022/12/24 06:35:34;;;;;;;13.23;3.58;;;;;;;;;;12862327;23;20042;-89
2022/12/24 06:40:39;;;;;;;13.50;3.42;;;;;;;;;;12859911;23;20031;-87
2022/12/24 06:45:46;;;;;;;21.60;4.45;;;;;;;;;;12862022;23;20027;-86
2022/12/24 06:50:51;;;;;;;15.80;3.90;;;;;;;;;;12859394;23;20024;-86
2022/12/24 06:56:01;;;;;;;17.63;3.20;;;;;;;;;;12862841;23;20078;-86
2022/12/24 07:01:07;;;;;;;15.57;3.42;;;;;;;;;;12858417;23;20771;-86
2022/12/24 07:06:21;;;;;;;14.07;3.53;;;;;;;;;;12856508;23;20396;-85
2022/12/24 07:11:26;;;;;;;10.05;3.05;;;;;;;;;;12852305;23;20243;-84
2022/12/24 07:16:29;;;;;;;13.75;2.97;;;;;;;;;;12851676;23;20087;-83
2022/12/24 07:21:34;;;;;;;17.10;3.22;;;;;;;;;;12891232;23;20465;-84
2022/12/24 07:26:38;;;;;;;11.25;3.22;;;;;;;;;;12850098;23;20400;-83
2022/12/24 07:31:41;;;;;;;13.25;2.70;;;;;;;;;;12887517;23;20024;-85
2022/12/24 07:36:46;;;;;;;7.72;2.15;;;;;;;;;;12849268;23;20020;-84
2022/12/24 07:41:50;;;;;;;10.45;3.75;;;;;;;;;;12848846;23;20412;-85
2022/12/24 07:46:55;;;;;;;12.15;3.45;;;;;;;;;;12845531;23;20412;-84
2022/12/24 07:52:00;;;;;;;10.13;3.55;;;;;;;;;;12859181;23;20242;-89
2022/12/24 07:57:03;;;;;;;10.75;3.08;;;;;;;;;;12860689;23;20035;-86
2022/12/24 08:02:09;;;;;;;15.68;3.42;;;;;;;;;;12865232;23;20541;-87
2022/12/24 08:07:18;;;;;;;15.38;3.45;;;;;;;;;;12867304;23;20031;-88
2022/12/24 08:12:22;;;;;;;9.40;2.45;;;;;;;;;;12868939;23;20062;-90
2022/12/24 08:17:25;;;;;;;9.77;3.03;;;;;;;;;;12910580;23;20545;-87
2022/12/24 08:22:35;;;;;;;5.72;1.90;;;;;;;;;;12888710;23;20050;-87
2022/12/24 08:27:38;;;;;;;;;;;;;;;;;;12887095;23;20099;-89
2022/12/24 08:32:42;;;;;;;5.93;2.15;;;;;;;;;;12884482;23;20316;-86
2022/12/24 08:37:50;;;;;;;6.70;1.92;;;;;;;;;;12883446;23;20034;-86
2022/12/24 08:42:54;;;;;;;8.60;2.35;;;;;;;;;;12881630;23;20039;-86
2022/12/24 08:48:00;;;;;;;5.88;1.50;;;;;;;;;;12878213;23;20633;-86
2022/12/24 08:53:07;;;;;;;5.93;1.50;;;;;;;;;;12882137;23;20058;-89
2022/12/24 08:58:10;;;;;;;5.40;1.20;;;;;;;;;;12879283;23;20024;-86
2022/12/24 09:03:15;;;;;;;4.75;1.38;;;;;;;;;;12883004;23;20553;-86
2022/12/24 09:08:22;;;;;;;7.38;1.90;;;;;;;;;;12886732;23;20031;-90
2022/12/24 09:13:25;;;;;;;5.80;2.22;;;;;;;;;;12889031;23;20016;-87
2022/12/24 09:18:29;;;;;;;4.70;1.80;;;;;;;;;;12892903;23;20023;-90
2022/12/24 09:23:38;;;;;;;1.67;0.98;;;;;;;;;;12893096;23;20020;-87
2022/12/24 09:28:44;;;;;;;6.00;1.70;;;;;;;;;;12867961;23;20055;-85
2022/12/24 09:33:48;;;;;;;6.97;2.30;;;;;;;;;;12853886;23;20098;-85
2022/12/24 09:38:56;;;;;;;11.80;3.25;;;;;;;;;;12879450;23;20020;-84
2022/12/24 09:44:03;;;;;;;5.78;2.10;;;;;;;;;;12887843;23;20274;-89
2022/12/24 09:49:13;;;;;;;8.43;2.30;;;;;;;;;;12877620;23;20366;-87
2022/12/24 09:54:44;;;;;;;6.32;1.70;;;;;;;;;;12854778;23;20371;-85
2022/12/24 09:59:50;;;;;;;14.45;3.30;;;;;;;;;;12874704;22;20695;-85
2022/12/24 10:04:55;;;;;;;13.35;4.85;;;;;;;;;;12895641;22;20059;-87
2022/12/24 10:10:12;;;;;;;16.67;3.42;;;;;;;;;;12925777;22;20035;-85
2022/12/24 10:15:22;;;;;;;9.57;2.60;;;;;;;;;;12889402;22;20024;-85
2022/12/24 10:20:35;;;;;;;7.40;1.75;;;;;;;;;;12935009;22;20028;-85
2022/12/24 10:25:47;;;;;;;5.10;2.20;;;;;;;;;;12916832;22;20078;-88
2022/12/24 10:30:57;;;;;;;11.30;3.00;;;;;;;;;;12914547;22;20028;-85
2022/12/24 10:36:01;;;;;;;12.65;3.20;;;;;;;;;;12912906;22;20024;-86
2022/12/24 10:41:09;;;;;;;9.10;2.90;;;;;;;;;;12916879;22;20625;-85
2022/12/24 10:46:18;;;;;;;11.85;3.10;;;;;;;;;;12913798;22;20108;-85
2022/12/24 10:51:30;;;;;;;10.38;2.35;;;;;;;;;;12914604;22;20406;-85
2022/12/24 10:56:40;;;;;;;8.90;2.30;;;;;;;;;;12913293;22;20016;-85
2022/12/24 11:01:45;;;;;;;10.05;2.42;;;;;;;;;;12917130;22;20020;-85
2022/12/24 11:06:54;;;;;;;10.25;2.97;;;;;;;;;;12914487;22;20016;-87
2022/12/24 11:12:01;;;;;;;12.02;2.70;;;;;;;;;;12913822;22;20052;-85
2022/12/24 11:17:07;;;;;;;11.25;2.58;;;;;;;;;;12915606;22;20031;-85
2022/12/24 11:22:21;;;;;;;11.68;2.38;;;;;;;;;;12915368;22;20058;-87
2022/12/24 11:27:33;;;;;;;8.45;2.30;;;;;;;;;;12911363;22;20128;-86
2022/12/24 11:32:37;;;;;;;13.68;2.92;;;;;;;;;;12904295;22;20032;-85
2022/12/24 11:37:40;;;;;;;8.40;2.13;;;;;;;;;;12903217;22;20071;-84
2022/12/24 11:42:45;;;;;;;8.25;2.03;;;;;;;;;;12902777;22;20023;-85
2022/12/24 11:47:49;;;;;;;11.48;2.40;;;;;;;;;;12903577;22;20046;-85
2022/12/24 11:52:59;;;;;;;9.75;2.88;;;;;;;;;;12900766;23;20032;-83
2022/12/24 11:58:12;;;;;;;13.68;3.25;;;;;;;;;;12904081;22;20272;-85
2022/12/24 12:03:28;;;;;;;11.93;2.38;;;;;;;;;;12900029;23;20051;-84
2022/12/24 12:08:33;;;;;;;8.18;2.67;;;;;;;;;;12904918;22;20020;-85
2022/12/24 12:13:39;;;;;;;10.52;2.17;;;;;;;;;;12904753;22;20554;-85
2022/12/24 12:18:49;;;;;;;4.53;1.27;;;;;;;;;;12902210;22;20024;-84
2022/12/24 12:23:57;;;;;;;9.88;2.38;;;;;;;;;;12900820;23;20099;-84
2022/12/24 12:29:10;;;;;;;8.77;2.22;;;;;;;;;;12904177;22;20103;-84
2022/12/24 12:34:18;;;;;;;11.50;2.63;;;;;;;;;;12903664;23;20809;-85
2022/12/24 12:39:21;;;;;;;10.55;2.35;;;;;;;;;;12905803;22;20047;-84
2022/12/24 12:44:52;;;;;;;9.30;3.20;;;;;;;;;;12903298;23;20035;-84
2022/12/24 12:50:03;;;;;;;8.02;2.60;;;;;;;;;;12903361;22;20360;-85
2022/12/24 12:55:28;;;;;;;5.88;2.05;;;;;;;;;;12906095;22;20044;-83
2022/12/24 13:00:37;;;;;;;5.05;1.60;;;;;;;;;;12914241;22;20023;-83
2022/12/24 13:06:07;;;;;;;4.97;1.73;;;;;;;;;;12920379;22;20051;-84
2022/12/24 13:11:33;;;;;;;6.13;1.77;;;;;;;;;;12919388;22;20142;-86
2022/12/24 13:16:55;;;;;;;6.45;1.85;;;;;;;;;;12916695;22;20081;-84
2022/12/24 13:21:59;;;;;;;7.93;2.50;;;;;;;;;;12931731;22;20034;-86
2022/12/24 13:27:04;;;;;;;8.25;2.83;;;;;;;;;;12918994;22;20095;-87
2022/12/24 13:32:51;;;;;;;10.38;3.40;;;;;;;;;;12919198;22;20478;-84
2022/12/24 13:37:54;;;;;;;6.18;2.25;;;;;;;;;;12920061;22;20024;-86
2022/12/24 13:43:11;;;;;;;8.80;2.85;;;;;;;;;;12921088;22;20424;-87
2022/12/24 13:48:30;;;;;;;10.23;2.75;;;;;;;;;;12920810;22;20076;-88
2022/12/24 13:53:39;;;;;;;3.78;1.33;;;;;;;;;;12919617;23;20358;-87
2022/12/24 13:58:46;;;;;;;3.70;1.42;;;;;;;;;;12926341;22;20540;-88
2022/12/24 14:03:53;;;;;;;5.88;1.73;;;;;;;;;;12920688;22;20055;-86
2022/12/24 14:09:05;;;;;;;8.05;2.03;;;;;;;;;;12919959;22;20069;-86
2022/12/24 14:14:26;;;;;;;10.32;2.20;;;;;;;;;;12918045;23;20059;-86
2022/12/24 14:19:40;;;;;;;6.78;1.55;;;;;;;;;;12920038;22;20018;-87
2022/12/24 14:24:49;;;;;;;4.50;1.13;;;;;;;;;;12921328;23;20047;-89
2022/12/24 14:30:00;;;;;;;6.55;1.30;;;;;;;;;;12920209;22;20027;-88
2022/12/24 14:35:14;;;;;;;5.38;1.35;;;;;;;;;;12940879;22;20095;-87
2022/12/24 14:40:22;;;;;;;5.00;1.40;;;;;;;;;;12919847;22;20024;-87
2022/12/24 14:45:31;;;;;;;5.35;1.00;;;;;;;;;;12919966;22;20103;-88
2022/12/24 14:50:47;;;;;;;3.67;1.38;;;;;;;;;;12920034;22;20016;-88
2022/12/24 14:55:51;;;;;;;6.20;1.30;;;;;;;;;;12937504;22;20071;-87
2022/12/24 15:00:58;;;;;;;3.05;1.08;;;;;;;;;;12921027;22;20036;-87
2022/12/24 15:06:07;;;;;;;4.85;1.15;;;;;;;;;;12919792;22;20086;-88
2022/12/24 15:11:17;;;;;;;2.45;1.05;;;;;;;;;;12919109;22;20549;-88
2022/12/24 15:16:24;;;;;;;4.13;1.20;;;;;;;;;;12921220;22;20028;-89
2022/12/24 15:21:32;;;;;;;2.67;1.10;;;;;;;;;;12919391;22;20028;-90
2022/12/24 15:26:36;;;;;;;6.43;1.80;;;;;;;;;;12917710;22;20028;-89
2022/12/24 15:31:39;;;;;;;2.38;1.08;;;;;;;;;;12919408;22;20027;-88
2022/12/24 15:36:44;;;;;;;3.92;1.35;;;;;;;;;;12919206;22;20040;-88
2022/12/24 15:47:19;;;;;;;7.20;2.28;;;;;;;;;;12918515;22;20494;-85
2022/12/24 15:52:26;;;;;;;5.50;1.60;;;;;;;;;;12918598;22;20052;-88
2022/12/24 15:57:32;;;;;;;2.78;1.25;;;;;;;;;;12918111;22;20028;-87
2022/12/24 16:02:38;;;;;;;4.68;1.30;;;;;;;;;;12917825;22;20044;-86
2022/12/24 16:13:01;;;;;;;3.17;0.70;;;;;;;;;;12924633;22;20406;-89
2022/12/24 16:18:04;;;;;;;4.70;1.25;;;;;;;;;;12918579;22;20032;-88
2022/12/24 16:23:18;;;;;;;4.45;1.05;;;;;;;;;;12919102;23;20031;-89
2022/12/24 16:28:21;;;;;;;4.97;1.35;;;;;;;;;;12917282;22;20059;-87
2022/12/24 16:33:25;;;;;;;3.72;1.30;;;;;;;;;;12925279;22;20519;-87
2022/12/24 16:39:21;;;;;;;3.08;1.23;;;;;;;;;;12919901;22;20371;-88
2022/12/24 16:43:54;;;;;;;4.00;1.52;;;;;;;;;;12921906;22;20024;-86
2022/12/24 16:48:59;;;;;;;4.95;1.85;;;;;;;;;;12910893;22;20027;-87
2022/12/24 16:54:04;;;;;;;6.03;1.55;;;;;;;;;;12903635;23;20671;-86
2022/12/24 16:59:09;;;;;;;5.25;1.45;;;;;;;;;;12906498;22;20044;-87
2022/12/24 17:04:15;;;;;;;3.30;1.58;;;;;;;;;;12904298;23;20023;-87
2022/12/24 17:09:20;;;;;;;5.07;1.40;;;;;;;;;;12905624;22;20024;-86
2022/12/24 17:14:24;;;;;;;4.18;1.30;;;;;;;;;;12905867;23;20028;-84
2022/12/24 17:19:27;;;;;;;5.50;2.78;;;;;;;;;;12906863;22;20027;-84
2022/12/24 17:24:33;;;;;;;4.53;2.10;;;;;;;;;;12907560;22;20031;-85
2022/12/24 17:29:37;;;;;;;6.43;1.67;;;;;;;;;;12906037;22;20024;-86
2022/12/24 17:34:40;;;;;;;6.15;2.03;;;;;;;;;;12905997;23;20103;-84
2022/12/24 17:39:45;;;;;;;3.55;2.35;;;;;;;;;;12905252;22;20514;-85
2022/12/24 17:44:49;;;;;;;5.70;2.72;;;;;;;;;;12902749;22;20086;-87
2022/12/24 17:49:53;;;;;;;3.80;1.70;;;;;;;;;;12905696;22;20039;-84
2022/12/24 17:54:57;;;;;;;2.97;1.38;;;;;;;;;;12905921;22;20020;-86
2022/12/24 18:00:01;;;;;;;2.80;1.52;;;;;;;;;;12927135;22;20091;-86
2022/12/24 18:05:07;;;;;;;1.03;0.73;;;;;;;;;;12907257;22;20085;-85
2022/12/24 18:10:18;;;;;;;1.60;0.90;;;;;;;;;;12904159;22;20040;-87
2022/12/24 18:15:22;;;;;;;2.25;1.08;;;;;;;;;;12904481;22;20019;-87
2022/12/24 18:20:26;;;;;;;1.25;0.80;;;;;;;;;;12908354;22;20044;-87
2022/12/24 18:25:31;;;;;;;3.00;1.13;;;;;;;;;;12904735;22;20107;-87
2022/12/24 18:30:35;;;;;;;3.97;1.10;;;;;;;;;;12904525;22;20372;-86
2022/12/24 18:35:38;;;;;;;2.00;0.93;;;;;;;;;;12903399;22;20102;-85
2022/12/24 18:40:43;;;;;;;2.50;1.10;;;;;;;;;;12904626;22;20019;-86
2022/12/24 18:45:47;;;;;;;1.77;0.77;;;;;;;;;;12922431;22;20031;-85
2022/12/24 18:50:56;;;;;;;1.98;0.98;;;;;;;;;;12902556;22;20028;-86
2022/12/24 18:56:05;;;;;;;3.42;1.20;;;;;;;;;;12920907;22;20772;-86
2022/12/24 19:01:12;;;;;;;2.30;1.17;;;;;;;;;;12902908;22;20231;-85
2022/12/24 19:06:21;;;;;;;1.98;0.90;;;;;;;;;;12900954;22;20078;-86
2022/12/24 19:11:27;;;;;;;1.50;1.00;;;;;;;;;;12904337;22;20367;-84
2022/12/24 19:16:33;;;;;;;1.33;0.70;;;;;;;;;;12904624;22;20110;-85
2022/12/24 19:21:37;;;;;;;11.60;5.82;;;;;;;;;;12900869;22;20182;-85
2022/12/24 19:26:42;;;;;;;9.50;4.35;;;;;;;;;;12902675;22;20277;-84
2022/12/24 19:31:46;;;;;;;5.28;2.30;;;;;;;;;;12904128;22;20406;-84
2022/12/24 19:36:49;;;;;;;5.13;2.00;;;;;;;;;;12905120;22;20036;-85
2022/12/24 19:41:54;;;;;;;4.65;1.77;;;;;;;;;;12905431;22;20085;-84
2022/12/24 19:46:58;;;;;;;3.45;1.77;;;;;;;;;;12902760;22;20055;-84
2022/12/24 19:52:01;;;;;;;14.63;8.23;;;;;;;;;;12903403;22;20115;-84
2022/12/24 19:57:06;;;;;;;6.93;3.10;;;;;;;;;;12904412;22;20059;-84
2022/12/24 20:02:10;;;;;;;7.10;2.53;;;;;;;;;;12902631;22;20035;-84
2022/12/24 20:07:14;;;;;;;5.60;2.03;;;;;;;;;;12901939;22;20572;-84
2022/12/24 20:12:19;;;;;;;5.40;1.85;;;;;;;;;;12904387;22;20028;-84
2022/12/24 20:17:22;;;;;;;5.22;1.35;;;;;;;;;;12902998;22;20321;-84
2022/12/24 20:22:26;;;;;;;5.07;1.08;;;;;;;;;;12915268;22;20286;-84
2022/12/24 20:27:31;;;;;;;4.63;1.50;;;;;;;;;;12910385;22;20044;-87
2022/12/24 20:32:34;;;;;;;3.65;1.00;;;;;;;;;;12907880;22;20024;-86
2022/12/24 20:37:38;;;;;;;5.22;1.20;;;;;;;;;;12916544;22;20078;-87
2022/12/24 20:42:50;;;;;;;3.85;1.48;;;;;;;;;;12909282;22;20044;-86
2022/12/24 20:47:57;;;;;;;5.45;1.65;;;;;;;;;;12921971;22;20442;-86
2022/12/24 20:53:01;;;;;;;4.80;2.15;;;;;;;;;;12922024;23;20024;-87
2022/12/24 20:58:06;;;;;;;8.07;3.50;;;;;;;;;;12922957;22;20024;-86
2022/12/24 21:03:10;;;;;;;8.07;3.10;;;;;;;;;;12922407;22;20024;-87
2022/12/24 21:08:15;;;;;;;5.22;2.08;;;;;;;;;;12922596;22;20024;-88
2022/12/24 21:13:24;;;;;;;6.28;1.25;;;;;;;;;;12907343;23;20283;-87
2022/12/24 21:18:28;;;;;;;3.33;1.23;;;;;;;;;;12910002;22;20312;-86
2022/12/24 21:23:32;;;;;;;4.45;1.70;;;;;;;;;;12917218;22;20023;-86
2022/12/24 21:28:37;;;;;;;5.90;2.05;;;;;;;;;;12922295;22;20028;-86
2022/12/24 21:33:40;;;;;;;3.30;0.98;;;;;;;;;;12919458;23;20020;-85
2022/12/24 21:38:44;;;;;;;3.67;0.90;;;;;;;;;;12925853;22;20030;-86
2022/12/24 21:43:49;;;;;;;3.83;1.10;;;;;;;;;;12919825;23;20107;-86
2022/12/24 21:54:25;;;;;;;4.53;1.55;;;;;;;;;;12908759;23;20494;-86
2022/12/24 21:59:30;;;;;;;2.53;1.25;;;;;;;;;;12911448;22;20020;-88
2022/12/24 22:04:34;;;;;;;2.15;1.10;;;;;;;;;;12906190;23;20020;-87
2022/12/24 22:15:01;;;;;;;2.03;1.35;;;;;;;;;;12903887;22;20127;-84
2022/12/24 22:20:06;;;;;;;3.58;1.33;;;;;;;;;;12901392;22;20051;-85
2022/12/24 22:25:09;;;;;;;2.17;1.00;;;;;;;;;;12903632;22;20047;-88
2022/12/24 22:30:14;;;;;;;5.40;2.30;;;;;;;;;;12902023;22;20020;-86
2022/12/24 22:35:19;;;;;;;6.20;2.20;;;;;;;;;;12905607;22;20078;-88
2022/12/24 22:40:22;;;;;;;3.03;1.10;;;;;;;;;;12904809;22;20026;-86
2022/12/24 22:45:27;;;;;;;3.17;0.90;;;;;;;;;;12906066;22;20099;-86
2022/12/24 22:50:31;;;;;;;2.83;1.48;;;;;;;;;;12908020;22;20051;-87
2022/12/24 22:55:35;;;;;;;8.10;1.70;;;;;;;;;;12927227;22;20100;-85
2022/12/24 23:00:42;;;;;;;2.95;1.75;;;;;;;;;;12907813;22;20027;-86
2022/12/24 23:05:46;;;;;;;5.53;2.10;;;;;;;;;;12908478;22;20114;-87
2022/12/24 23:10:50;;;;;;;2.95;1.80;;;;;;;;;;12906019;22;20531;-87
2022/12/24 23:15:54;;;;;;;2.70;1.38;;;;;;;;;;12921303;22;20167;-88
2022/12/24 23:21:03;;;;;;;2.50;1.42;;;;;;;;;;12908000;22;20027;-86
2022/12/24 23:26:08;;;;;;;7.05;2.20;;;;;;;;;;12904410;22;20048;-88
2022/12/24 23:31:13;;;;;;;6.15;1.88;;;;;;;;;;12906616;22;20035;-89
2022/12/24 23:36:17;;;;;;;3.00;1.20;;;;;;;;;;12905165;22;20024;-85
2022/12/24 23:41:21;;;;;;;5.47;1.38;;;;;;;;;;12904957;22;20024;-87
2022/12/24 23:46:26;;;;;;;4.15;1.05;;;;;;;;;;12906838;22;20082;-85
2022/12/24 23:51:31;;;;;;;;;;;;;;;;;;12916669;22;20369;-85
2022/12/24 23:56:34;;;;;;;3.80;1.20;;;;;;;;;;12914480;22;19949;-88
